createdAt,value
2022-10-06T00:01:06.329Z,7.80
2022-10-06T00:03:33.349Z,6.43
2022-10-06T00:06:04.311Z,3.70
2022-10-06T00:08:34.303Z,5.78
2022-10-06T00:11:01.769Z,6.93
2022-10-06T00:13:29.686Z,7.13
2022-10-06T00:15:56.890Z,4.90
2022-10-06T00:18:24.419Z,6.10
2022-10-06T00:21:00.379Z,7.10
2022-10-06T00:23:28.975Z,6.55
2022-10-06T00:25:55.983Z,5.20
2022-10-06T00:28:23.123Z,3.70
2022-10-06T00:30:51.307Z,4.38
2022-10-06T00:33:18.166Z,5.50
2022-10-06T00:35:45.539Z,6.03
2022-10-06T00:38:16.126Z,6.88
2022-10-06T00:40:49.440Z,5.78
2022-10-06T00:43:45.844Z,9.60
2022-10-06T00:46:30.072Z,6.85
2022-10-06T00:49:06.087Z,7.43
2022-10-06T00:51:34.186Z,6.40
2022-10-06T00:54:02.448Z,7.32
2022-10-06T00:56:29.612Z,9.43
2022-10-06T00:58:56.501Z,10.65
2022-10-06T01:01:24.033Z,6.10
2022-10-06T01:03:59.557Z,5.32
2022-10-06T01:06:26.434Z,6.53
2022-10-06T01:08:53.842Z,5.55
2022-10-06T01:11:20.994Z,8.02
2022-10-06T01:13:48.117Z,5.05
2022-10-06T01:16:24.236Z,7.93
2022-10-06T01:18:55.468Z,10.77
2022-10-06T01:21:46.652Z,8.13
2022-10-06T01:24:14.089Z,6.75
2022-10-06T01:26:45.917Z,6.78
2022-10-06T01:29:13.326Z,7.67
2022-10-06T01:31:40.519Z,7.80
2022-10-06T01:34:07.466Z,5.13
2022-10-06T01:36:34.305Z,12.68
2022-10-06T01:39:01.221Z,10.40
2022-10-06T01:41:28.113Z,7.35
2022-10-06T01:43:55.309Z,7.38
2022-10-06T01:46:22.310Z,7.82
2022-10-06T01:48:49.209Z,9.50
2022-10-06T01:51:16.906Z,7.75
2022-10-06T01:53:44.153Z,11.27
2022-10-06T01:56:11.428Z,9.95
2022-10-06T01:58:38.308Z,10.80
2022-10-06T02:01:09.728Z,10.35
2022-10-06T02:03:38.984Z,11.45
2022-10-06T02:06:07.863Z,12.25
2022-10-06T02:08:35.361Z,10.15
2022-10-06T02:11:10.784Z,13.85
2022-10-06T02:13:38.709Z,11.43
2022-10-06T02:16:08.151Z,8.82
2022-10-06T02:18:35.956Z,8.75
2022-10-06T02:21:03.653Z,6.63
2022-10-06T02:23:31.159Z,7.88
2022-10-06T02:26:05.681Z,7.65
2022-10-06T02:28:33.213Z,6.22
2022-10-06T02:31:07.345Z,5.90
2022-10-06T02:33:36.097Z,5.90
2022-10-06T02:36:04.521Z,6.78
2022-10-06T02:38:32.458Z,3.35
2022-10-06T02:41:00.782Z,4.30
2022-10-06T02:43:31.711Z,3.80
2022-10-06T02:46:12.213Z,4.65
2022-10-06T02:48:40.666Z,4.60
2022-10-06T02:51:13.286Z,2.97
2022-10-06T02:53:40.251Z,2.63
2022-10-06T02:56:11.259Z,2.72
2022-10-06T02:58:42.827Z,4.78
2022-10-06T03:01:13.756Z,6.32
2022-10-06T03:03:41.138Z,5.18
2022-10-06T03:06:22.228Z,2.85
2022-10-06T03:08:52.810Z,3.00
2022-10-06T03:11:25.867Z,4.03
2022-10-06T03:13:53.552Z,2.92
2022-10-06T03:16:24.993Z,3.65
2022-10-06T03:18:54.454Z,3.03
2022-10-06T03:21:27.386Z,2.03
2022-10-06T03:23:56.383Z,3.65
2022-10-06T03:26:30.964Z,2.83
2022-10-06T03:28:58.269Z,4.30
2022-10-06T03:31:25.620Z,2.38
2022-10-06T03:33:54.537Z,2.60
2022-10-06T03:36:24.029Z,3.28
2022-10-06T03:38:51.073Z,4.75
2022-10-06T03:41:25.172Z,4.07
2022-10-06T03:43:55.714Z,3.42
2022-10-06T03:46:26.494Z,4.25
2022-10-06T03:48:54.851Z,3.22
2022-10-06T03:51:27.189Z,4.82
2022-10-06T03:53:54.525Z,4.47
2022-10-06T03:56:30.847Z,3.42
2022-10-06T03:59:00.935Z,5.60
2022-10-06T04:01:30.357Z,5.13
2022-10-06T04:03:59.404Z,4.88
2022-10-06T04:06:30.330Z,5.38
2022-10-06T04:08:57.627Z,2.58
2022-10-06T04:11:28.569Z,6.15
2022-10-06T04:14:00.984Z,6.10
2022-10-06T04:16:31.558Z,3.20
2022-10-06T04:19:02.224Z,2.88
2022-10-06T04:21:31.379Z,6.85
2022-10-06T04:24:00.244Z,6.18
2022-10-06T04:26:30.714Z,4.13
2022-10-06T04:28:58.157Z,5.10
2022-10-06T04:31:29.562Z,3.83
2022-10-06T04:33:59.511Z,4.93
2022-10-06T04:36:31.315Z,2.80
2022-10-06T04:39:01.367Z,4.47
2022-10-06T04:41:39.971Z,4.53
2022-10-06T04:44:07.706Z,4.68
2022-10-06T04:46:43.369Z,3.08
2022-10-06T04:49:17.615Z,7.28
2022-10-06T04:51:49.864Z,4.45
2022-10-06T04:54:18.688Z,4.07
2022-10-06T04:56:45.644Z,7.85
2022-10-06T04:59:12.559Z,8.18
2022-10-06T05:01:39.391Z,5.53
2022-10-06T05:04:09.156Z,7.32
2022-10-06T05:06:41.827Z,7.63
2022-10-06T05:09:12.739Z,8.95
2022-10-06T05:11:39.613Z,7.90
2022-10-06T05:14:06.930Z,10.00
2022-10-06T05:16:34.018Z,9.15
2022-10-06T05:19:01.327Z,6.35
2022-10-06T05:21:30.999Z,5.20
2022-10-06T05:23:58.526Z,6.22
2022-10-06T05:26:29.019Z,10.02
2022-10-06T05:28:56.431Z,8.10
2022-10-06T05:31:29.787Z,14.77
2022-10-06T05:33:58.145Z,7.78
2022-10-06T05:36:31.038Z,6.22
2022-10-06T05:38:59.149Z,10.43
2022-10-06T05:41:30.164Z,6.43
2022-10-06T05:43:58.359Z,3.65
2022-10-06T05:46:33.801Z,5.85
2022-10-06T05:49:04.050Z,10.15
2022-10-06T05:51:33.853Z,6.78
2022-10-06T05:54:01.463Z,8.85
2022-10-06T05:56:34.484Z,9.57
2022-10-06T05:59:02.009Z,9.27
2022-10-06T06:01:43.536Z,8.65
2022-10-06T06:04:13.502Z,6.68
2022-10-06T06:06:44.235Z,7.90
2022-10-06T06:09:19.888Z,8.65
2022-10-06T06:11:49.565Z,9.32
2022-10-06T06:14:20.085Z,9.10
2022-10-06T06:16:47.125Z,14.40
2022-10-06T06:19:14.657Z,8.63
2022-10-06T06:21:41.582Z,9.02
2022-10-06T06:24:08.759Z,8.65
2022-10-06T06:26:37.783Z,12.13
2022-10-06T06:29:06.362Z,8.77
2022-10-06T06:31:39.008Z,9.15
2022-10-06T06:34:07.374Z,10.50
2022-10-06T06:36:40.932Z,8.40
2022-10-06T06:39:11.171Z,8.05
2022-10-06T06:41:41.914Z,9.30
2022-10-06T06:44:11.534Z,9.75
2022-10-06T06:46:40.245Z,9.48
2022-10-06T06:49:07.765Z,10.63
2022-10-06T06:51:37.442Z,8.30
2022-10-06T06:54:06.493Z,10.90
2022-10-06T06:56:35.225Z,8.63
2022-10-06T06:59:06.583Z,9.43
2022-10-06T07:01:33.484Z,14.20
2022-10-06T07:04:00.512Z,9.70
2022-10-06T07:06:30.062Z,12.40
2022-10-06T07:08:58.769Z,9.93
2022-10-06T07:11:35.404Z,8.45
2022-10-06T07:14:06.286Z,8.48
2022-10-06T07:16:52.240Z,8.02
2022-10-06T07:19:40.024Z,8.45
2022-10-06T07:22:28.183Z,7.22
2022-10-06T07:25:07.559Z,7.78
2022-10-06T07:27:47.191Z,11.68
2022-10-06T07:30:19.381Z,9.35
2022-10-06T07:32:47.921Z,6.47
2022-10-06T07:35:16.573Z,8.75
2022-10-06T07:37:43.982Z,10.63
2022-10-06T07:40:11.187Z,10.85
2022-10-06T07:42:49.256Z,11.35
2022-10-06T07:45:41.073Z,10.23
2022-10-06T07:48:20.905Z,15.77
2022-10-06T07:50:50.680Z,7.60
2022-10-06T07:53:18.617Z,7.03
2022-10-06T07:55:47.866Z,9.40
2022-10-06T07:58:18.657Z,7.28
2022-10-06T08:00:48.688Z,8.32
2022-10-06T08:03:20.005Z,9.15
2022-10-06T08:05:58.391Z,11.52
2022-10-06T08:08:25.451Z,9.30
2022-10-06T08:11:00.312Z,4.63
2022-10-06T08:13:28.366Z,10.45
2022-10-06T08:15:56.510Z,7.65
2022-10-06T08:18:45.462Z,11.52
2022-10-06T08:21:17.193Z,7.30
2022-10-06T08:23:46.998Z,6.45
2022-10-06T08:26:15.740Z,7.45
2022-10-06T08:28:52.185Z,9.13
2022-10-06T08:31:21.841Z,11.55
2022-10-06T08:33:54.384Z,5.70
2022-10-06T08:36:21.723Z,10.15
2022-10-06T08:38:50.477Z,9.40
2022-10-06T08:41:39.676Z,9.05
2022-10-06T08:44:43.240Z,7.68
2022-10-06T08:47:22.853Z,6.32
2022-10-06T08:49:53.106Z,10.02
2022-10-06T08:52:47.919Z,10.48
2022-10-06T08:55:42.387Z,10.07
2022-10-06T08:59:06.324Z,9.60
2022-10-06T09:01:54.810Z,8.38
2022-10-06T09:04:30.301Z,7.55
2022-10-06T09:07:13.999Z,4.15
2022-10-06T09:10:21.225Z,9.70
2022-10-06T09:13:01.204Z,7.05
2022-10-06T09:15:40.264Z,5.47
2022-10-06T09:18:19.604Z,8.63
2022-10-06T09:21:03.425Z,6.65
2022-10-06T09:23:49.931Z,6.03
2022-10-06T09:26:34.230Z,12.55
2022-10-06T09:29:01.154Z,6.55
2022-10-06T09:31:38.034Z,9.95
2022-10-06T09:34:20.770Z,9.23
2022-10-06T09:39:50.962Z,10.23
2022-10-06T09:42:21.059Z,13.38
2022-10-06T09:44:58.061Z,7.97
2022-10-06T09:47:39.891Z,7.43
2022-10-06T09:50:12.615Z,7.50
2022-10-06T09:53:00.685Z,7.22
2022-10-06T09:55:33.737Z,9.20
2022-10-06T09:58:01.587Z,10.00
2022-10-06T10:00:36.155Z,7.88
2022-10-06T10:03:07.566Z,5.70
2022-10-06T10:05:38.673Z,5.82
2022-10-06T10:08:15.595Z,8.73
2022-10-06T10:10:42.466Z,6.63
2022-10-06T10:13:26.964Z,7.68
2022-10-06T10:15:59.082Z,6.28
2022-10-06T10:18:30.203Z,6.07
2022-10-06T10:21:00.749Z,8.68
2022-10-06T10:23:32.232Z,6.47
2022-10-06T10:26:38.933Z,6.13
2022-10-06T10:30:05.887Z,9.30
2022-10-06T10:33:12.191Z,6.45
2022-10-06T10:35:48.472Z,14.75
2022-10-06T10:38:20.862Z,8.23
2022-10-06T10:40:55.939Z,8.13
2022-10-06T10:43:51.314Z,7.38
2022-10-06T10:46:31.173Z,8.10
2022-10-06T10:49:19.219Z,9.43
2022-10-06T10:52:02.011Z,8.02
2022-10-06T10:57:35.744Z,11.38
2022-10-06T11:00:22.984Z,10.20
2022-10-06T11:02:54.910Z,6.07
2022-10-06T11:05:44.002Z,7.18
2022-10-06T11:08:17.424Z,8.77
2022-10-06T11:10:48.774Z,6.63
2022-10-06T11:13:44.520Z,6.25
2022-10-06T11:16:58.492Z,5.38
2022-10-06T11:19:51.945Z,6.10
2022-10-06T11:22:47.187Z,8.77
2022-10-06T11:26:11.855Z,9.38
2022-10-06T11:28:45.326Z,7.03
2022-10-06T11:31:27.035Z,3.63
2022-10-06T11:33:56.479Z,7.07
2022-10-06T11:37:05.093Z,5.35
2022-10-06T11:40:24.896Z,5.60
2022-10-06T11:43:07.492Z,9.73
2022-10-06T11:45:47.910Z,8.88
2022-10-06T11:48:26.764Z,6.45
2022-10-06T11:50:58.497Z,6.13
2022-10-06T11:53:37.023Z,5.80
2022-10-06T11:56:18.979Z,6.38
2022-10-06T11:58:52.111Z,7.50
2022-10-06T12:01:31.111Z,7.40
2022-10-06T12:04:10.272Z,8.73
2022-10-06T12:06:45.885Z,6.30
2022-10-06T12:09:25.929Z,5.95
2022-10-06T12:11:55.556Z,7.57
2022-10-06T12:18:00.666Z,9.85
2022-10-06T12:20:52.638Z,4.20
2022-10-06T12:24:04.050Z,6.72
2022-10-06T12:27:08.288Z,7.63
2022-10-06T12:29:43.472Z,8.43
2022-10-06T12:32:40.615Z,5.40
2022-10-06T12:35:36.149Z,5.43
2022-10-06T12:38:06.164Z,5.00
2022-10-06T12:40:42.314Z,6.28
2022-10-06T12:43:17.762Z,6.07
2022-10-06T12:45:48.672Z,7.00
2022-10-06T12:48:47.677Z,9.25
2022-10-06T12:51:26.345Z,6.05
2022-10-06T12:54:17.277Z,6.70
2022-10-06T12:56:59.013Z,5.28
2022-10-06T12:59:35.276Z,6.57
2022-10-06T13:02:10.312Z,4.05
2022-10-06T13:04:50.296Z,4.70
2022-10-06T13:07:22.511Z,8.45
2022-10-06T13:12:37.641Z,7.35
2022-10-06T13:15:35.175Z,7.07
2022-10-06T13:18:08.055Z,9.05
2022-10-06T13:20:43.053Z,7.88
2022-10-06T13:23:24.395Z,5.43
2022-10-06T13:25:59.672Z,5.97
2022-10-06T13:28:49.406Z,6.53
2022-10-06T13:31:22.853Z,4.22
2022-10-06T13:33:59.195Z,6.82
2022-10-06T13:36:32.099Z,5.22
2022-10-06T13:38:59.533Z,6.05
2022-10-06T13:41:28.994Z,8.25
2022-10-06T13:44:13.417Z,5.97
2022-10-06T13:46:45.256Z,13.73
2022-10-06T13:49:22.143Z,11.52
2022-10-06T13:51:53.503Z,6.28
2022-10-06T13:54:48.040Z,3.70
2022-10-06T13:57:35.089Z,6.55
2022-10-06T14:00:31.721Z,5.70
2022-10-06T14:03:09.453Z,7.40
2022-10-06T14:05:43.670Z,6.10
2022-10-06T14:08:10.383Z,5.10
2022-10-06T14:10:40.261Z,5.07
2022-10-06T14:13:16.119Z,4.65
2022-10-06T14:16:02.314Z,5.15
2022-10-06T14:18:45.495Z,4.68
2022-10-06T14:21:45.656Z,4.88
2022-10-06T14:24:15.451Z,4.55
2022-10-06T14:26:44.256Z,6.57
2022-10-06T14:29:14.115Z,7.18
2022-10-06T14:31:41.011Z,8.20
2022-10-06T14:34:16.533Z,5.13
2022-10-06T14:36:46.573Z,5.30
2022-10-06T14:39:15.800Z,5.20
2022-10-06T14:41:42.783Z,4.13
2022-10-06T14:44:12.190Z,4.60
2022-10-06T14:46:47.440Z,7.03
2022-10-06T14:49:14.773Z,5.57
2022-10-06T14:51:43.613Z,3.35
2022-10-06T14:54:11.616Z,5.00
2022-10-06T14:56:40.226Z,3.50
2022-10-06T14:59:10.648Z,5.60
2022-10-06T15:01:40.283Z,5.15
2022-10-06T15:04:13.655Z,5.82
2022-10-06T15:07:00.186Z,7.07
2022-10-06T15:09:30.597Z,4.68
2022-10-06T15:11:59.802Z,7.55
2022-10-06T15:14:28.569Z,5.05
2022-10-06T15:16:58.978Z,5.57
2022-10-06T15:19:26.352Z,5.82
2022-10-06T15:21:53.201Z,3.28
2022-10-06T15:24:20.147Z,5.25
2022-10-06T15:27:06.318Z,5.97
2022-10-06T15:29:35.194Z,5.32
2022-10-06T15:32:03.862Z,7.40
2022-10-06T15:34:34.331Z,7.13
2022-10-06T15:37:01.837Z,5.47
2022-10-06T15:39:35.766Z,6.15
2022-10-06T15:42:02.831Z,3.75
2022-10-06T15:44:34.446Z,4.47
2022-10-06T15:47:01.650Z,6.70
2022-10-06T15:49:37.634Z,4.97
2022-10-06T15:52:05.607Z,4.40
2022-10-06T15:54:37.679Z,5.00
2022-10-06T15:57:08.630Z,3.90
2022-10-06T15:59:36.671Z,3.30
2022-10-06T16:02:08.580Z,4.47
2022-10-06T16:04:40.149Z,6.88
2022-10-06T16:09:43.402Z,5.20
2022-10-06T16:12:16.435Z,7.95
2022-10-06T16:14:44.365Z,6.93
2022-10-06T16:17:12.417Z,6.57
2022-10-06T16:19:43.290Z,6.05
2022-10-06T16:22:21.799Z,4.07
2022-10-06T16:24:54.365Z,3.00
2022-10-06T16:27:29.030Z,4.63
2022-10-06T16:30:06.135Z,3.42
2022-10-06T16:32:34.301Z,7.05
2022-10-06T16:35:08.487Z,4.97
2022-10-06T16:37:36.999Z,6.55
2022-10-06T16:40:08.413Z,4.47
2022-10-06T16:42:35.834Z,9.88
2022-10-06T16:45:03.493Z,4.88
2022-10-06T16:47:30.756Z,4.93
2022-10-06T16:49:57.591Z,2.60
2022-10-06T16:52:24.370Z,6.60
2022-10-06T16:54:51.365Z,5.05
2022-10-06T16:57:18.362Z,8.38
2022-10-06T16:59:47.041Z,4.43
2022-10-06T17:02:14.097Z,6.57
2022-10-06T17:04:41.006Z,3.95
2022-10-06T17:07:07.957Z,10.15
2022-10-06T17:09:35.136Z,4.72
2022-10-06T17:12:04.488Z,7.65
2022-10-06T17:14:33.205Z,5.43
2022-10-06T17:17:00.595Z,5.22
2022-10-06T17:19:29.775Z,6.65
2022-10-06T17:21:59.561Z,4.63
2022-10-06T17:24:28.677Z,3.83
2022-10-06T17:26:57.487Z,5.82
2022-10-06T17:29:25.793Z,5.30
2022-10-06T17:31:58.961Z,7.07
2022-10-06T17:34:32.497Z,5.78
2022-10-06T17:37:01.694Z,4.65
2022-10-06T17:39:28.672Z,4.68
2022-10-06T17:41:55.513Z,3.83
2022-10-06T17:44:26.333Z,6.22
2022-10-06T17:46:57.088Z,5.53
2022-10-06T17:49:25.317Z,8.43
2022-10-06T17:51:54.864Z,8.60
2022-10-06T17:54:24.806Z,4.15
2022-10-06T17:56:55.979Z,5.47
2022-10-06T17:59:28.943Z,8.82
2022-10-06T18:04:24.847Z,6.57
2022-10-06T18:06:53.862Z,7.20
2022-10-06T18:09:22.094Z,8.55
2022-10-06T18:11:54.816Z,11.55
2022-10-06T18:14:28.152Z,3.95
2022-10-06T18:17:01.180Z,5.03
2022-10-06T18:19:30.647Z,6.45
2022-10-06T18:22:09.944Z,6.07
2022-10-06T18:24:37.252Z,7.25
2022-10-06T18:27:06.263Z,6.25
2022-10-06T18:29:36.531Z,4.57
2022-10-06T18:32:42.098Z,9.98
2022-10-06T18:37:39.022Z,6.75
2022-10-06T18:40:08.817Z,6.10
2022-10-06T18:42:36.015Z,8.20
2022-10-06T18:45:21.641Z,8.93
2022-10-06T18:48:06.761Z,8.48
2022-10-06T18:50:35.093Z,8.02
2022-10-06T18:53:04.103Z,9.10
2022-10-06T18:55:31.959Z,8.80
2022-10-06T18:57:58.871Z,9.45
2022-10-06T19:00:26.284Z,6.38
2022-10-06T19:02:55.441Z,9.40
2022-10-06T19:05:23.351Z,15.32
2022-10-06T19:07:53.812Z,8.32
2022-10-06T19:10:20.905Z,10.32
2022-10-06T19:12:48.523Z,9.40
2022-10-06T19:15:20.406Z,10.57
2022-10-06T19:17:48.267Z,9.35
2022-10-06T19:20:15.311Z,6.70
2022-10-06T19:22:44.102Z,7.85
2022-10-06T19:25:11.436Z,7.10
2022-10-06T19:27:38.329Z,8.48
2022-10-06T19:30:05.712Z,12.30
2022-10-06T19:32:32.804Z,14.70
2022-10-06T19:35:00.241Z,12.45
2022-10-06T19:37:30.139Z,12.48
2022-10-06T19:39:57.626Z,19.60
2022-10-06T19:42:44.262Z,20.23
2022-10-06T19:45:12.393Z,17.25
2022-10-06T19:47:40.292Z,15.45
2022-10-06T19:50:12.247Z,11.45
2022-10-06T19:52:41.576Z,15.05
2022-10-06T19:55:08.771Z,18.40
2022-10-06T19:57:35.672Z,15.90
2022-10-06T20:00:02.619Z,17.92
2022-10-06T20:02:29.510Z,15.98
2022-10-06T20:04:56.876Z,14.55
2022-10-06T20:07:27.574Z,17.08
2022-10-06T20:09:55.557Z,17.88
2022-10-06T20:12:25.145Z,15.20
2022-10-06T20:14:53.752Z,15.63
2022-10-06T20:17:21.259Z,14.55
2022-10-06T20:19:48.345Z,17.13
2022-10-06T20:22:15.352Z,21.33
2022-10-06T20:24:42.517Z,19.02
2022-10-06T20:27:10.372Z,14.00
2022-10-06T20:29:37.205Z,16.38
2022-10-06T20:32:05.474Z,19.25
2022-10-06T20:34:33.225Z,17.73
2022-10-06T20:37:05.148Z,15.90
2022-10-06T20:39:52.237Z,14.05
2022-10-06T20:42:20.556Z,19.05
2022-10-06T20:44:47.704Z,16.95
2022-10-06T20:47:16.590Z,13.00
2022-10-06T20:49:44.460Z,12.95
2022-10-06T20:52:14.655Z,18.05
2022-10-06T20:54:42.317Z,17.15
2022-10-06T20:57:09.659Z,12.98
2022-10-06T20:59:37.748Z,13.02
2022-10-06T21:02:06.103Z,10.70
2022-10-06T21:04:33.745Z,11.82
2022-10-06T21:07:01.616Z,12.02
2022-10-06T21:09:28.940Z,17.85
2022-10-06T21:11:57.498Z,16.55
2022-10-06T21:14:24.525Z,14.88
2022-10-06T21:16:52.511Z,12.10
2022-10-06T21:19:20.121Z,12.27
2022-10-06T21:21:53.373Z,13.23
2022-10-06T21:24:20.812Z,12.02
2022-10-06T21:26:48.641Z,11.57
2022-10-06T21:29:16.512Z,12.57
2022-10-06T21:31:44.948Z,11.77
2022-10-06T21:34:14.159Z,11.45
2022-10-06T21:36:42.380Z,8.45
2022-10-06T21:39:10.521Z,10.93
2022-10-06T21:41:39.116Z,10.93
2022-10-06T21:44:15.547Z,12.73
2022-10-06T21:46:56.046Z,9.15
2022-10-06T21:49:25.134Z,9.93
2022-10-06T21:51:56.386Z,8.00
2022-10-06T21:54:23.851Z,11.85
2022-10-06T21:56:51.250Z,8.63
2022-10-06T21:59:18.101Z,9.25
2022-10-06T22:01:46.697Z,8.50
2022-10-06T22:04:14.996Z,9.57
2022-10-06T22:06:43.906Z,9.13
2022-10-06T22:09:15.470Z,11.90
2022-10-06T22:11:42.916Z,6.50
2022-10-06T22:14:15.371Z,10.65
2022-10-06T22:16:42.911Z,5.90
2022-10-06T22:19:13.298Z,8.02
2022-10-06T22:21:43.942Z,7.50
2022-10-06T22:24:17.417Z,8.02
2022-10-06T22:26:45.515Z,8.63
2022-10-06T22:29:16.119Z,11.93
2022-10-06T22:31:45.908Z,10.70
2022-10-06T22:34:16.276Z,10.25
2022-10-06T22:36:43.281Z,10.10
2022-10-06T22:39:10.416Z,7.82
2022-10-06T22:41:37.967Z,8.50
2022-10-06T22:44:04.933Z,9.00
2022-10-06T22:46:35.475Z,7.20
2022-10-06T22:49:03.113Z,15.45
2022-10-06T22:51:30.047Z,8.13
2022-10-06T22:53:59.609Z,10.55
2022-10-06T22:56:28.701Z,10.05
2022-10-06T22:58:59.277Z,7.25
2022-10-06T23:01:28.070Z,7.97
2022-10-06T23:03:55.625Z,9.45
2022-10-06T23:06:22.786Z,12.27
2022-10-06T23:08:49.751Z,8.25
2022-10-06T23:11:19.678Z,8.30
2022-10-06T23:13:48.428Z,7.57
2022-10-06T23:16:17.553Z,9.15
2022-10-06T23:18:45.347Z,8.82
2022-10-06T23:21:21.521Z,7.55
2022-10-06T23:23:54.539Z,13.30
2022-10-06T23:26:22.737Z,8.70
2022-10-06T23:28:56.609Z,10.75
2022-10-06T23:31:24.165Z,9.88
2022-10-06T23:33:51.827Z,10.15
2022-10-06T23:36:18.970Z,8.40
2022-10-06T23:38:46.699Z,8.70
2022-10-06T23:41:14.372Z,10.40
2022-10-06T23:43:41.589Z,9.38
2022-10-06T23:46:08.710Z,12.02
2022-10-06T23:48:35.728Z,7.03
2022-10-06T23:51:07.430Z,7.38
2022-10-06T23:53:34.814Z,9.77
2022-10-06T23:56:02.280Z,12.32
2022-10-06T23:58:29.421Z,8.93
